Terminal Aerodrome Forecast
Issued by NWS

Home | Current Version | Previous Version | Text Only | Print | Product List | Glossary On
Versions: 1 2 3 4 5 6 7 8 9 10 11 12 13
154
FTUS45 KGGW 202326
TAFSDY
TAF
KSDY 202326Z 2100/2124 35012KT P6SM FEW250
     FM210900 05006KT P6SM BKN080
     FM212100 10012KT P6SM BKN060=

USA.gov is the U.S. government's official web portal to all federal, state and local government web resources and services.